TGPY/GND METAR and TAF weather

Enter ICAO airport designator
Station Type Date Time Source
TGPY METAR 2022/01/29 13:00 UTC NOAA

TGPY 291300Z 08014KT 9999 FEW020 28/22 Q1014 NOSIG


Station Type Date Time Source
TGPY Decoded METAR 2022/01/29 13:00 UTC NOAA

Point Salines Airport, Grenada (TGPY) 12-00N 061-47W 7M
Jan 29, 2022 - 08:00 AM EST / 2022.01.29 1300 UTC
Wind: from the E (080 degrees) at 16 MPH (14 KT):0
Visibility: greater than 7 mile(s):0
Sky conditions: mostly clear
Temperature: 82 F (28 C)
Dew Point: 71 F (22 C)
Relative Humidity: 69%
Pressure (altimeter): 29.94 in. Hg (1014 hPa)
ob: TGPY 291300Z 08014KT 9999 FEW020 28/22 Q1014 NOSIG
cycle: 13

Station Type Date Time Source
TGPY TAF 2022/01/29 12:35 UTC NOAA

TAF TGPY 291000Z 2912/3012 08015KT 9999 FEW018

Example: see airport list